Have a Safe July 4th! 

Flight Track Log - Related Links

Times and Time Zones

All times are in EDT time to prevent confusion due to time zone crossing. See the KAP927 flight status page for this flight to view local times or setup timezone preferences in your user account.

Time Position Orientation Groundspeed Altitude Reporting Facility
EDT Latitude Longitude Course Direction KTS MPH feet Rate Location/Type
Sat 01:01:00 PM 42.3667 -71.0167 246° West 104 120 400  Level KA90
Sat 01:02:36 PM 42.3500 -71.0667 246° West 98 113 1,800 808 Climbing KA90
Sat 01:03:36 PM 42.3333 -71.1000 236° Southwest 99 114 2,500 750 Climbing KA90
Sat 01:04:36 PM 42.3333 -71.1333 270° West 104 120 3,300 800 Climbing KA90
Sat 01:05:36 PM 42.3167 -71.1833 246° West 108 124 4,100 737 Climbing KA90
Sat 01:06:30 PM 42.3167 -71.2167 270° West 107 123 4,700 632 Climbing KA90
Sat 01:07:30 PM 42.3167 -71.2500 270° West 103 119 5,300 500 Climbing KA90
Sat 01:08:30 PM 42.3167 -71.3000 270° West 116 133 5,700 450 Climbing KA90
Sat 01:09:30 PM 42.3167 -71.3333 270° West 122 140 6,200 500 Climbing KA90
Sat 01:10:30 PM 42.3000 -71.3833 246° West 124 143 6,700 419 Climbing KA90
Sat 01:10:56 PM 42.3000 -71.4128 270° West 124 143 6,800 414 Climbing Boston Center
Sat 01:11:57 PM 42.2983 -71.4578 267° West 123 142 7,300 443 Climbing Boston Center
Sat 01:12:58 PM 42.2922 -71.5056 260° West 122 140 7,700 347 Climbing Boston Center
Sat 01:13:58 PM 42.2886 -71.5506 264° West 123 142 8,000 149 Climbing Boston Center
Sat 01:14:59 PM 42.2828 -71.6067 262° West 141 162 8,000  Level Boston Center
Sat 01:16:00 PM 42.2831 -71.6572 270° West 143 165 8,000  Level Boston Center
Sat 01:16:55 PM 42.2833 -71.7078 270° West 143 165 8,000  Level Boston Center
Sat 01:17:55 PM 42.2839 -71.7639 271° West 142 163 8,000  Level Boston Center
Sat 01:18:56 PM 42.2842 -71.8142 270° West 136 157 8,000  Level Boston Center
Sat 01:19:57 PM 42.2844 -71.8647 270° West 131 151 8,000  Level Boston Center
Sat 01:20:58 PM 42.2825 -71.9125 267° West 134 154 8,000  Level Boston Center
Sat 01:21:59 PM 42.2847 -71.9631 273° West 134 154 8,000  Level Boston Center
Sat 01:23:00 PM 42.2850 -72.0136 270° West 131 151 8,000  Level Boston Center
Sat 01:24:00 PM 42.2853 -72.0642 270° West 133 153 8,000  Level Boston Center
Sat 01:25:01 PM 42.2853 -72.1144 270° West 134 154 8,000  Level Boston Center
Sat 01:26:02 PM 42.2875 -72.1678 273° West 132 152 8,000  Level Boston Center
Sat 01:27:03 PM 42.3000 -72.2156 289° West 135 155 8,000  Level Boston Center
Sat 01:28:04 PM 42.3147 -72.2631 293° West 138 159 8,000  Level Boston Center
Sat 01:29:05 PM 42.3275 -72.3136 289° West 137 158 8,000  Level Boston Center
Sat 01:30:06 PM 42.3419 -72.3614 292° West 139 160 8,000  Level Boston Center
Sat 01:31:06 PM 42.3567 -72.4119 292° West 141 162 8,000  Level Boston Center
Sat 01:32:07 PM 42.3692 -72.4625 289° West 139 160 8,000  Level Boston Center
Sat 01:33:08 PM 42.3836 -72.5103 292° West 139 160 8,000  Level Boston Center
Sat 01:34:09 PM 42.3961 -72.5611 288° West 143 165 8,000  Level Boston Center
Sat 01:35:10 PM 42.4128 -72.6117 294° West 141 162 8,000  Level Boston Center
Sat 01:36:11 PM 42.4294 -72.6622 294° West 142 163 8,000  Level Boston Center
Sat 01:37:12 PM 42.4417 -72.7103 289° West 143 165 8,000  Level Boston Center
Sat 01:38:12 PM 42.4561 -72.7636 290° West 143 165 8,000  Level Boston Center
Sat 01:39:57 PM 42.4808 -72.8511 291° West 144 166 8,000  Level Boston Center
Sat 01:40:45 PM 42.4933 -72.8906 293° West 144 166 8,000 55 Level Boston Center
Sat 01:41:46 PM 42.5097 -72.9442 293° West 146 168 8,100  Climbing Boston Center
Sat 01:42:46 PM 42.5242 -72.9978 290° West 148 170 8,000  Descending Boston Center
Sat 01:43:47 PM 42.5406 -73.0458 295° West 147 169 8,100 49 Climbing Boston Center
Sat 01:44:48 PM 42.5589 -73.0939 297° West 145 167 8,100 -246 Level Boston Center
Sat 01:45:49 PM 42.5858 -73.1422 307° West 154 177 7,600 -472 Descending Boston Center
Sat 01:46:55 PM 42.6125 -73.2047 300° West 169 194 7,100 -472 Descending Boston Center
Sat 01:47:56 PM 42.6331 -73.2556 299° West 163 188 6,600 -443 Descending Boston Center
Sat 01:48:57 PM 42.6597 -73.3097 304° West 161 185 6,200 -446 Descending Boston Center
Sat 01:49:57 PM 42.6822 -73.3608 301° West 162 186 5,700 -496 Descending Boston Center
Sat 01:50:58 PM 42.7089 -73.4178 303° West 165 190 5,200 -541 Descending Boston Center
Sat 01:51:59 PM 42.7314 -73.4717 300° West 166 191 4,600 -645 Descending Boston Center
Sat 01:52:59 PM 42.7558 -73.5258 302° West 171 197 3,900 -709 Descending Boston Center
Sat 01:54:06 PM 42.7531 -73.5936 267° West 174 200 3,100 -656 Descending Boston Center
Sat 01:55:07 PM 42.7525 -73.6503 269° West 124 143 2,500 -694 Descending Boston Center
Sat 01:56:07 PM 42.7519 -73.6983 269° West 120 138 1,700 -694 Descending Boston Center
Sat 01:57:08 PM 42.7492 -73.7464 266° West 122 140 1,100 -590 Descending Boston Center
Sat 01:58:09 PM 42.7489 -73.7831 269° West 107 123 500 -590 Descending Boston Center
Sat 02:00:00 PM 42.7333 -73.8000 288° West  Level FlightAware Approximate
Sat 02:07:00 PM 42.7491 -73.8020 288° West  Level Estimated
Sat 02:08:00 PM 42.7491 -73.8020 288° West  Level Estimated

Login

Don't have an account? Register now (free) for customized features, flight alerts, and more!